Time;durP1;ratioP1;P1;durP2;ratioP2;P2;SDS_P1;SDS_P2;PMS_P1;PMS_P2;Temp;Humidity;BMP_temperature;BMP_pressure;BME280_temperature;BME280_humidity;BME280_pressure;Samples;Min_cycle;Max_cycle;Signal;HPM_P1;HPM_P2
2023/08/20 00:01:25;;;;;;;5.33;4.63;;;26.40;99.90;;;27.00;72.14;100921.25;4979651;28;20770;-65
2023/08/20 00:03:52;;;;;;;5.13;4.43;;;26.40;99.90;;;27.05;72.14;100921.44;5005843;28;20633;-64
2023/08/20 00:06:21;;;;;;;6.37;4.10;;;26.40;99.90;;;27.05;72.14;100924.09;4990487;28;20693;-65
2023/08/20 00:08:48;;;;;;;6.80;4.30;;;26.40;99.90;;;27.06;72.15;100924.94;4998068;28;20642;-65
2023/08/20 00:11:16;;;;;;;7.43;4.40;;;26.40;99.90;;;27.06;72.36;100923.09;4988762;28;20668;-64
2023/08/20 00:13:43;;;;;;;4.40;4.00;;;26.40;99.90;;;27.03;72.30;100928.03;4982855;28;21278;-66
2023/08/20 00:16:10;;;;;;;5.03;4.53;;;26.40;99.90;;;27.02;72.05;100921.03;4990851;28;20665;-65
2023/08/20 00:18:39;;;;;;;5.60;4.90;;;26.40;99.90;;;26.98;72.13;100931.34;4986103;28;20643;-65
2023/08/20 00:21:07;;;;;;;5.10;4.30;;;26.30;99.90;;;26.90;72.71;100924.34;4980524;28;20652;-64
2023/08/20 00:23:35;;;;;;;5.20;4.30;;;26.30;99.90;;;26.90;73.23;100934.22;4971125;28;20646;-64
2023/08/20 00:26:03;;;;;;;4.87;4.17;;;26.20;99.90;;;26.88;73.30;100928.28;4997970;28;20658;-64
2023/08/20 00:28:33;;;;;;;4.80;4.20;;;26.20;99.90;;;26.80;73.44;100939.22;4981408;28;20650;-63
2023/08/20 00:31:01;;;;;;;8.90;4.87;;;26.10;99.90;;;26.76;73.59;100924.59;5006486;28;20729;-64
2023/08/20 00:33:28;;;;;;;4.77;4.13;;;26.10;99.90;;;26.74;73.55;100940.03;5002815;28;20722;-65
2023/08/20 00:35:55;;;;;;;7.73;4.60;;;26.00;99.90;;;26.73;73.60;100935.72;5005392;28;20717;-66
2023/08/20 00:38:22;;;;;;;4.73;4.20;;;26.00;99.90;;;26.74;73.50;100932.00;4980461;28;20720;-64
2023/08/20 00:40:49;;;;;;;4.93;4.27;;;26.00;99.90;;;26.74;73.75;100938.19;4971990;28;20697;-65
2023/08/20 00:43:16;;;;;;;3.90;3.50;;;26.00;99.90;;;26.73;74.02;100933.03;4973193;28;20762;-64
2023/08/20 00:45:43;;;;;;;3.70;3.40;;;26.00;99.90;;;26.68;73.73;100938.16;4973702;28;21412;-65
2023/08/20 00:48:11;;;;;;;4.83;4.30;;;26.00;99.90;;;26.66;74.04;100942.91;4985856;28;20622;-67
2023/08/20 00:50:40;;;;;;;5.33;4.83;;;26.00;99.90;;;26.65;74.09;100938.56;4981332;28;20637;-65
2023/08/20 00:53:10;;;;;;;5.20;4.20;;;26.00;99.90;;;26.64;73.55;100944.97;5000548;28;20658;-64
2023/08/20 00:55:37;;;;;;;4.70;4.23;;;26.00;99.90;;;26.60;73.96;100947.22;4969075;28;20658;-65
2023/08/20 00:58:05;;;;;;;4.87;4.40;;;25.90;99.90;;;26.55;73.96;100951.56;4967593;28;20655;-64
2023/08/20 01:00:32;;;;;;;5.80;5.20;;;25.90;99.90;;;26.51;74.09;100944.97;4980321;28;20658;-64
2023/08/20 01:02:59;;;;;;;6.07;4.40;;;25.80;99.90;;;26.52;74.16;100955.47;4985661;28;21222;-65
2023/08/20 01:05:29;;;;;;;4.83;4.33;;;25.80;99.90;;;26.49;74.38;100947.03;4990383;28;20741;-65
2023/08/20 01:07:59;;;;;;;5.53;4.47;;;25.80;99.90;;;26.46;74.52;100939.41;4989913;28;20643;-64
2023/08/20 01:10:49;;;;;;;6.03;4.60;;;25.80;99.90;;;26.43;74.79;100942.50;5004684;28;20638;-65
2023/08/20 01:13:16;;;;;;;4.70;4.30;;;25.70;99.90;;;26.42;74.73;100939.00;4986862;28;20685;-65
2023/08/20 01:15:43;;;;;;;5.97;4.60;;;25.70;99.90;;;26.40;75.02;100943.75;5006393;28;20622;-65
2023/08/20 01:18:10;;;;;;;5.00;4.60;;;25.70;99.90;;;26.36;75.34;100942.50;4984965;28;20701;-65
2023/08/20 01:20:46;;;;;;;7.00;4.30;;;25.70;99.90;;;26.31;75.74;100934.25;4973268;28;20681;-64
2023/08/20 01:23:53;;;;;;;4.63;4.17;;;25.60;99.90;;;26.29;75.99;100935.50;4985330;28;20733;-64
2023/08/20 01:26:49;;;;;;;4.20;3.80;;;25.60;99.90;;;26.27;76.12;100926.84;4986543;28;20657;-65
2023/08/20 01:29:17;;;;;;;5.30;4.00;;;25.60;99.90;;;26.23;76.55;100921.09;4997495;28;20622;-64
2023/08/20 01:31:44;;;;;;;4.20;3.60;;;25.60;99.90;;;26.19;76.66;100924.38;4988875;28;21426;-65
2023/08/20 01:34:13;;;;;;;6.27;3.70;;;25.50;99.90;;;26.13;76.65;100918.81;4969963;28;21204;-65
2023/08/20 01:36:40;;;;;;;8.03;5.03;;;25.50;99.90;;;26.12;76.57;100917.19;4961228;28;20647;-65
2023/08/20 01:39:07;;;;;;;5.67;4.17;;;25.50;99.90;;;26.06;77.43;100915.28;4977443;28;21019;-65
2023/08/20 01:41:35;;;;;;;4.40;4.00;;;25.40;99.90;;;25.99;77.55;100919.78;4981845;28;20666;-64
2023/08/20 01:44:02;;;;;;;4.33;3.90;;;25.40;99.90;;;25.97;77.69;100911.16;4984848;28;20704;-65
2023/08/20 01:46:29;;;;;;;4.97;4.10;;;25.30;99.90;;;25.95;77.73;100910.53;4983051;28;20774;-64
2023/08/20 01:48:56;;;;;;;5.10;4.13;;;25.30;99.90;;;25.94;77.75;100900.03;4981161;28;20768;-64
2023/08/20 01:51:23;;;;;;;5.07;4.40;;;25.30;99.90;;;25.91;77.95;100901.28;5000622;28;21071;-64
2023/08/20 01:53:50;;;;;;;4.60;4.13;;;25.30;99.90;;;25.88;78.15;100907.03;4970442;28;20730;-65
2023/08/20 01:56:17;;;;;;;3.77;3.47;;;25.20;99.90;;;25.85;78.27;100901.25;4964936;28;20642;-65
2023/08/20 01:58:43;;;;;;;4.63;3.83;;;25.20;99.90;;;25.83;78.41;100906.78;4973524;28;20700;-65
2023/08/20 02:01:10;;;;;;;4.60;3.73;;;25.20;99.90;;;25.81;78.47;100911.53;4978794;28;21284;-65
2023/08/20 02:03:38;;;;;;;6.30;4.70;;;25.20;99.90;;;25.81;78.80;100916.88;4970400;28;20635;-65
2023/08/20 02:06:05;;;;;;;4.77;4.10;;;25.20;99.90;;;25.77;78.38;100906.81;4975041;28;20798;-65
2023/08/20 02:08:32;;;;;;;4.00;3.60;;;25.20;99.90;;;25.75;77.89;100912.34;4984450;28;20733;-64
2023/08/20 02:11:03;;;;;;;4.07;3.77;;;25.20;99.90;;;25.74;78.35;100916.03;5001455;28;20665;-65
2023/08/20 02:13:31;;;;;;;4.00;3.70;;;25.20;99.90;;;25.73;78.78;100922.41;5001900;28;20646;-65
2023/08/20 02:16:03;;;;;;;3.87;3.57;;;25.10;99.90;;;25.71;79.05;100919.13;4988835;28;21200;-64
2023/08/20 02:18:30;;;;;;;5.00;4.00;;;25.10;99.90;;;25.69;78.93;100926.50;4975456;28;20722;-64
2023/08/20 02:20:57;;;;;;;5.57;4.20;;;25.10;99.90;;;25.67;78.91;100933.91;4981588;28;20650;-65
2023/08/20 02:23:24;;;;;;;4.40;3.57;;;25.10;99.90;;;25.65;78.52;100938.63;5001318;28;20670;-65
2023/08/20 02:25:51;;;;;;;3.90;3.50;;;25.00;99.90;;;25.65;78.61;100937.78;4973664;28;20634;-65
2023/08/20 02:28:18;;;;;;;4.57;3.60;;;25.00;99.90;;;25.66;78.00;100945.59;4975743;28;20635;-64
2023/08/20 02:30:46;;;;;;;3.97;3.57;;;25.10;99.90;;;25.61;78.23;100940.06;4989624;28;21032;-65
2023/08/20 02:33:13;;;;;;;4.37;3.50;;;25.00;99.90;;;25.58;78.63;100932.44;4984620;28;20634;-65
2023/08/20 02:35:41;;;;;;;4.77;4.13;;;25.00;99.90;;;25.58;79.03;100937.78;4988128;28;20638;-65
2023/08/20 02:38:09;;;;;;;4.57;4.17;;;25.00;99.90;;;25.55;79.54;100927.50;4985463;28;20637;-66
2023/08/20 02:40:41;;;;;;;4.30;3.87;;;25.00;99.90;;;25.53;79.81;100926.88;4983472;28;20689;-65
2023/08/20 02:43:09;;;;;;;4.90;4.37;;;24.90;99.90;;;25.49;79.89;100930.94;4992095;28;20654;-65
2023/08/20 02:45:43;;;;;;;5.10;4.60;;;24.90;99.90;;;25.47;80.17;100933.00;4990245;28;21225;-65
2023/08/20 02:48:10;;;;;;;4.77;4.10;;;24.90;99.90;;;25.46;80.53;100934.03;4988674;28;20728;-65
2023/08/20 02:50:38;;;;;;;5.10;4.60;;;24.90;99.90;;;25.41;80.78;100936.44;4977475;28;20654;-64
2023/08/20 02:53:05;;;;;;;5.13;4.50;;;24.90;99.90;;;25.37;80.27;100928.00;4975947;28;20645;-65
2023/08/20 02:55:33;;;;;;;4.50;4.10;;;24.80;99.90;;;25.37;80.66;100927.19;4988186;28;20996;-66
2023/08/20 02:58:00;;;;;;;9.70;5.20;;;24.80;99.90;;;25.36;80.44;100928.22;4973260;28;21283;-65
2023/08/20 03:00:27;;;;;;;8.60;5.83;;;24.80;99.90;;;25.36;80.29;100922.88;4971933;28;20745;-64
2023/08/20 03:02:54;;;;;;;5.23;4.57;;;24.80;99.90;;;25.39;79.87;100933.97;4984613;28;20645;-65
2023/08/20 03:05:22;;;;;;;5.97;5.37;;;24.80;99.90;;;25.37;79.62;100932.53;4993561;28;20688;-67
2023/08/20 03:07:49;;;;;;;4.60;4.20;;;24.80;99.90;;;25.35;79.84;100937.25;4991063;28;20719;-64
2023/08/20 03:10:17;;;;;;;6.53;4.80;;;24.80;99.90;;;25.25;80.31;100931.44;4976756;28;20655;-65
2023/08/20 03:12:44;;;;;;;5.90;4.33;;;24.70;99.90;;;25.22;80.10;100931.81;4986574;28;21014;-65
2023/08/20 03:15:11;;;;;;;8.03;5.30;;;24.60;99.90;;;25.20;80.32;100928.53;4988075;28;20638;-64
2023/08/20 03:17:38;;;;;;;6.63;5.57;;;24.60;99.90;;;25.22;80.64;100930.00;5003443;28;20661;-65
2023/08/20 03:20:06;;;;;;;7.33;5.70;;;24.60;99.90;;;25.27;80.66;100924.06;4966567;28;21015;-65
2023/08/20 03:22:36;;;;;;;5.90;5.10;;;24.70;99.90;;;25.32;80.06;100933.09;4983142;28;20650;-64
2023/08/20 03:25:04;;;;;;;7.73;5.33;;;24.70;99.90;;;25.37;79.15;100929.84;4978792;28;21012;-65
2023/08/20 03:27:31;;;;;;;6.70;4.70;;;24.80;99.90;;;25.34;79.46;100925.72;4983809;28;20731;-65
2023/08/20 03:29:58;;;;;;;6.10;5.00;;;24.80;99.90;;;25.34;79.43;100928.41;4997755;28;20644;-66
2023/08/20 03:32:25;;;;;;;8.43;5.57;;;24.80;99.90;;;25.32;79.64;100921.63;4990207;28;20692;-64
2023/08/20 03:34:53;;;;;;;7.40;4.93;;;24.70;99.90;;;25.33;80.11;100923.25;4974492;28;20654;-65
2023/08/20 03:37:22;;;;;;;5.47;4.87;;;24.70;99.90;;;25.35;79.68;100926.56;4989786;28;20642;-65
2023/08/20 03:39:49;;;;;;;6.57;5.47;;;24.80;99.90;;;25.34;79.12;100925.72;4990190;28;20649;-65
2023/08/20 03:42:16;;;;;;;7.23;5.70;;;24.80;99.90;;;25.37;79.61;100924.50;4991746;28;20634;-65
2023/08/20 03:44:43;;;;;;;5.70;4.90;;;24.80;99.90;;;25.37;78.90;100935.19;4989196;28;20650;-64
2023/08/20 03:47:10;;;;;;;5.03;4.33;;;24.80;99.90;;;25.33;79.00;100928.59;4985343;28;20673;-64
2023/08/20 03:49:38;;;;;;;6.17;4.67;;;24.80;99.90;;;25.30;79.00;100937.00;4983335;28;20720;-65
2023/08/20 03:52:06;;;;;;;7.33;5.13;;;24.70;99.90;;;25.27;79.55;100937.41;4992426;28;20670;-64
2023/08/20 03:54:34;;;;;;;4.93;4.30;;;24.70;99.90;;;25.21;79.26;100936.34;4970949;28;20643;-64
2023/08/20 03:57:01;;;;;;;4.83;4.40;;;24.70;99.90;;;25.19;79.81;100929.56;4966310;28;20657;-65
2023/08/20 03:59:29;;;;;;;5.20;4.43;;;24.60;99.90;;;25.15;79.92;100933.66;4966960;28;20663;-65
2023/08/20 04:01:57;;;;;;;5.40;4.57;;;24.60;99.90;;;25.12;80.00;100931.38;4968268;28;20719;-63
2023/08/20 04:04:24;;;;;;;5.13;4.63;;;24.60;99.90;;;25.08;80.57;100940.81;4972366;28;20623;-64
2023/08/20 04:06:51;;;;;;;5.20;4.70;;;24.50;99.90;;;25.04;80.91;100945.72;4995393;28;21216;-64
2023/08/20 04:09:18;;;;;;;5.67;4.50;;;24.50;99.90;;;24.99;81.32;100945.47;4990459;28;20676;-64
2023/08/20 04:11:45;;;;;;;5.93;4.43;;;24.40;99.90;;;24.93;81.49;100938.25;4984021;28;20797;-63
2023/08/20 04:14:12;;;;;;;6.17;4.70;;;24.40;99.90;;;24.92;82.07;100935.75;4991846;28;20634;-65
2023/08/20 04:16:39;;;;;;;5.23;4.73;;;24.40;99.90;;;24.92;81.95;100947.28;4978223;28;20645;-65
2023/08/20 04:19:06;;;;;;;5.87;4.80;;;24.40;99.90;;;24.91;82.04;100944.81;4992781;28;20626;-64
2023/08/20 04:21:33;;;;;;;5.77;4.30;;;24.30;99.90;;;24.89;82.42;100952.19;4988522;28;20686;-66
2023/08/20 04:24:00;;;;;;;5.10;4.37;;;24.30;99.90;;;24.82;82.56;100957.47;4970542;28;21247;-65
2023/08/20 04:26:27;;;;;;;5.07;4.60;;;24.20;99.90;;;24.78;82.71;100945.53;4979687;28;21195;-65
2023/08/20 04:28:54;;;;;;;6.67;4.80;;;24.20;99.90;;;24.74;83.34;100946.94;5002923;28;20677;-66
2023/08/20 04:31:20;;;;;;;6.00;5.20;;;24.20;99.90;;;24.71;83.79;100949.97;4990749;28;20654;-64
2023/08/20 04:33:48;;;;;;;4.90;4.40;;;24.20;99.90;;;24.69;83.53;100949.34;4994845;28;21109;-65
2023/08/20 04:36:14;;;;;;;9.27;5.83;;;24.20;99.90;;;24.68;83.99;100953.84;4978671;28;20738;-64
2023/08/20 04:38:41;;;;;;;5.93;5.30;;;24.10;99.90;;;24.65;83.85;100948.06;4969848;28;20734;-64
2023/08/20 04:41:08;;;;;;;7.53;5.00;;;24.10;99.90;;;24.67;84.44;100948.72;4985807;28;20725;-65
2023/08/20 04:43:35;;;;;;;4.80;4.27;;;24.10;99.90;;;24.70;83.67;100951.00;5001298;28;20634;-65
2023/08/20 04:46:02;;;;;;;5.73;4.97;;;24.10;99.90;;;24.76;83.71;100958.25;4982408;28;20663;-62
2023/08/20 04:48:29;;;;;;;6.23;5.23;;;24.20;99.90;;;24.73;83.45;100968.44;4983122;28;20674;-66
2023/08/20 04:50:56;;;;;;;4.70;4.00;;;24.20;99.90;;;24.76;84.02;100968.94;4987578;28;20749;-65
2023/08/20 04:53:23;;;;;;;7.90;4.90;;;24.20;99.90;;;24.85;83.69;100972.28;4984754;28;20648;-66
2023/08/20 04:55:50;;;;;;;5.80;4.70;;;24.20;99.90;;;24.97;82.83;100973.38;4989921;28;20725;-64
2023/08/20 04:58:17;;;;;;;5.50;4.67;;;24.40;99.90;;;25.07;82.12;100965.84;4975875;28;20647;-65
2023/08/20 05:00:44;;;;;;;6.60;5.90;;;24.50;99.90;;;25.24;81.77;100962.66;4992106;28;20766;-66
2023/08/20 05:03:11;;;;;;;6.60;5.63;;;24.60;99.90;;;25.45;80.70;100964.44;4986574;28;21179;-67
2023/08/20 05:05:38;;;;;;;7.40;5.97;;;24.80;99.90;;;25.64;79.17;100966.34;4977656;28;20672;-64
2023/08/20 05:08:05;;;;;;;10.20;5.83;;;25.00;99.90;;;25.79;78.62;100977.72;4980778;28;20698;-66
2023/08/20 05:10:33;;;;;;;5.63;4.90;;;25.20;99.90;;;25.93;77.67;100983.94;4981185;28;20653;-66
2023/08/20 05:13:00;;;;;;;6.67;5.27;;;25.30;99.90;;;26.06;76.90;100995.50;4982151;28;20631;-65
2023/08/20 05:15:26;;;;;;;5.87;5.13;;;25.40;99.90;;;26.26;76.50;100995.56;4989718;28;21191;-64
2023/08/20 05:17:53;;;;;;;9.27;5.20;;;25.60;99.90;;;26.43;75.51;100990.66;4990896;28;20685;-64
2023/08/20 05:20:20;;;;;;;5.67;5.07;;;25.80;99.90;;;26.57;75.12;100997.66;4998363;28;21140;-65
2023/08/20 05:22:47;;;;;;;5.93;4.93;;;25.90;99.90;;;26.62;74.44;100996.00;4984719;28;20646;-64
2023/08/20 05:25:14;;;;;;;5.17;4.73;;;26.00;99.90;;;26.70;73.68;101000.34;4990201;28;20641;-65
2023/08/20 05:27:41;;;;;;;5.20;4.70;;;26.10;99.90;;;26.69;73.68;101001.38;4985166;28;20732;-64
2023/08/20 05:30:09;;;;;;;5.50;4.70;;;26.10;99.90;;;26.59;73.95;101003.63;4991191;28;20650;-65
2023/08/20 05:32:36;;;;;;;12.03;5.70;;;26.00;99.90;;;26.56;74.13;101001.34;4982303;28;20634;-66
2023/08/20 05:35:04;;;;;;;5.43;4.93;;;26.00;99.90;;;26.55;74.42;101000.56;4977894;28;21206;-65
2023/08/20 05:37:31;;;;;;;8.67;5.30;;;26.00;99.90;;;26.54;74.22;100998.91;5001319;28;20639;-65
2023/08/20 05:39:58;;;;;;;7.60;5.17;;;26.00;99.90;;;26.53;74.37;101004.47;4989403;28;20684;-65
2023/08/20 05:42:24;;;;;;;7.83;5.83;;;25.90;99.90;;;26.69;74.50;101002.19;4983526;28;20678;-64
2023/08/20 05:44:51;;;;;;;8.40;6.30;;;26.00;99.90;;;26.97;73.60;101002.00;4988214;28;20630;-64
2023/08/20 05:47:18;;;;;;;5.53;5.00;;;26.30;99.90;;;27.43;71.91;101005.44;4975942;28;20675;-65
2023/08/20 05:49:45;;;;;;;6.37;4.97;;;26.70;99.90;;;27.88;70.22;101002.78;4969388;28;20641;-65
2023/08/20 05:52:12;;;;;;;7.40;5.43;;;27.10;99.90;;;28.42;67.97;101005.78;4971882;28;20677;-66
2023/08/20 05:54:39;;;;;;;14.20;7.00;;;27.60;99.90;;;29.12;66.23;101013.47;4991533;28;21188;-68
2023/08/20 05:57:06;;;;;;;16.00;7.83;;;28.20;99.90;;;29.82;63.33;101022.84;4963939;28;20655;-72
2023/08/20 05:59:33;;;;;;;13.30;8.27;;;28.90;99.90;;;30.54;60.54;101021.00;4989685;28;20674;-71
2023/08/20 06:02:01;;;;;;;9.10;6.10;;;29.60;99.90;;;31.24;58.37;101027.31;4995045;28;20667;-71
2023/08/20 06:04:29;;;;;;;7.87;6.03;;;30.30;99.90;;;31.81;56.70;101026.38;4977486;28;20622;-71
2023/08/20 06:06:56;;;;;;;6.90;5.10;;;31.00;99.90;;;32.01;55.25;101036.78;4993868;28;20686;-71
2023/08/20 06:09:23;;;;;;;9.43;6.53;;;31.30;99.90;;;32.47;53.99;101033.06;4980759;28;20762;-72
2023/08/20 06:11:51;;;;;;;7.93;5.27;;;31.70;99.90;;;33.09;52.85;101040.03;4997106;28;20662;-72
2023/08/20 06:14:18;;;;;;;6.20;5.60;;;32.20;99.90;;;33.32;51.15;101041.72;4980658;28;20672;-71
2023/08/20 06:16:45;;;;;;;5.97;5.13;;;32.60;99.90;;;33.21;50.94;101043.47;4978936;28;20729;-71
2023/08/20 06:19:12;;;;;;;5.30;4.80;;;32.50;99.90;;;33.34;51.08;101042.28;4981859;28;20665;-71
2023/08/20 06:21:39;;;;;;;6.10;4.63;;;32.60;99.90;;;33.88;50.15;101043.25;4992380;28;20757;-71
2023/08/20 06:24:06;;;;;;;4.70;4.30;;;33.00;99.90;;;34.48;48.37;101046.59;4994450;28;20642;-72
2023/08/20 06:26:33;;;;;;;5.33;4.83;;;33.70;99.90;;;35.11;46.64;101043.09;4968133;28;20646;-72
2023/08/20 06:29:00;;;;;;;4.90;4.50;;;34.30;99.90;;;35.75;44.85;101049.97;4982556;28;20741;-70
2023/08/20 06:31:27;;;;;;;4.33;4.03;;;34.90;98.90;;;36.39;43.96;101055.00;4983282;28;20654;-71
2023/08/20 06:33:54;;;;;;;6.57;4.80;;;35.50;97.80;;;36.82;42.59;101042.81;4978883;28;21022;-71
2023/08/20 06:36:21;;;;;;;5.00;4.50;;;35.90;96.40;;;36.64;42.25;101046.06;4980139;28;20725;-70
2023/08/20 06:38:48;;;;;;;4.60;4.30;;;35.90;95.50;;;35.93;44.03;101056.78;4982950;28;20643;-70
2023/08/20 06:41:15;;;;;;;5.40;4.90;;;35.40;95.50;;;35.01;45.42;101043.81;4991222;28;20801;-71
2023/08/20 06:43:42;;;;;;;7.50;5.40;;;34.60;95.80;;;34.07;47.47;101036.47;4995116;28;21151;-70
2023/08/20 06:46:09;;;;;;;5.47;4.67;;;33.70;96.70;;;33.29;49.01;101025.97;4991253;28;21900;-70
2023/08/20 06:48:36;;;;;;;5.53;5.00;;;32.90;98.00;;;32.67;50.92;101047.72;4993161;28;20670;-69
2023/08/20 06:51:14;;;;;;;7.50;5.10;;;32.30;98.80;;;32.45;52.21;101038.69;4983731;28;20728;-70
2023/08/20 06:53:41;;;;;;;5.50;5.00;;;31.80;99.90;;;33.25;51.29;101051.88;4970871;28;20643;-71
2023/08/20 06:56:09;;;;;;;5.27;4.70;;;32.30;99.90;;;34.39;48.56;101050.88;4993238;28;20637;-70
2023/08/20 06:58:36;;;;;;;4.70;4.30;;;33.30;99.20;;;35.49;45.88;101058.25;4972971;28;21199;-70
2023/08/20 07:01:09;;;;;;;5.77;5.20;;;34.30;97.80;;;36.23;44.44;101053.34;4993909;28;20651;-70
2023/08/20 07:03:42;;;;;;;6.10;5.60;;;35.00;96.70;;;36.98;42.47;101052.59;4961989;28;20737;-71
2023/08/20 07:06:10;;;;;;;6.20;4.27;;;35.70;95.50;;;37.36;41.32;101053.91;5007296;28;20840;-71
2023/08/20 07:08:41;;;;;;;4.97;4.40;;;36.20;94.40;;;37.54;41.34;101067.72;4985952;28;21439;-71
2023/08/20 07:11:08;;;;;;;5.30;4.90;;;36.50;93.70;;;37.66;40.86;101065.50;5003675;28;20661;-71
2023/08/20 07:13:35;;;;;;;5.20;4.63;;;36.70;93.50;;;37.63;40.60;101070.69;4987866;28;20693;-71
2023/08/20 07:16:02;;;;;;;5.50;5.00;;;36.80;92.40;;;37.53;41.75;101060.66;5007207;28;20623;-70
2023/08/20 07:18:30;;;;;;;5.30;4.80;;;36.80;92.30;;;37.50;41.55;101066.66;4988615;28;20651;-71
2023/08/20 07:20:57;;;;;;;4.57;4.17;;;36.80;92.10;;;37.60;41.75;101074.78;4992373;28;21294;-70
2023/08/20 07:23:24;;;;;;;9.53;4.60;;;36.80;92.00;;;37.67;41.44;101067.13;4984896;28;20669;-71
2023/08/20 07:25:54;;;;;;;4.77;4.47;;;36.90;91.70;;;37.79;40.80;101075.81;5006483;28;20732;-70
2023/08/20 07:28:56;;;;;;;7.43;5.03;;;37.00;91.40;;;37.91;40.34;101073.56;4986903;28;21027;-70
2023/08/20 07:31:07;;;;;;;5.23;4.83;;;37.10;91.00;;;37.77;40.40;101067.09;4986660;28;20672;-70
2023/08/20 07:33:34;;;;;;;4.67;4.27;;;37.10;90.60;;;37.92;40.63;101064.31;4979007;28;20634;-71
2023/08/20 07:36:01;;;;;;;3.50;3.30;;;37.10;90.60;;;37.67;41.11;101072.59;4982200;28;20700;-69
2023/08/20 07:38:28;;;;;;;4.87;4.47;;;37.00;90.30;;;37.48;40.85;101076.19;4973573;28;21074;-70
2023/08/20 07:40:55;;;;;;;5.23;4.80;;;36.70;90.60;;;37.29;41.67;101076.75;4990126;28;20657;-70
2023/08/20 07:43:24;;;;;;;5.70;5.20;;;36.50;90.70;;;37.44;41.92;101075.13;4994437;28;21735;-71
2023/08/20 07:45:51;;;;;;;5.20;4.20;;;36.60;90.80;;;37.37;41.81;101078.13;4961548;28;20643;-68
2023/08/20 07:48:18;;;;;;;4.90;4.60;;;36.50;90.60;;;37.38;41.85;101071.59;4974145;28;20675;-71
2023/08/20 07:50:44;;;;;;;5.37;4.87;;;36.50;90.70;;;37.36;41.83;101067.50;4974866;28;20677;-71
2023/08/20 07:53:11;;;;;;;5.47;5.07;;;36.50;90.80;;;37.31;41.79;101065.59;4981739;28;20642;-70
2023/08/20 07:55:38;;;;;;;5.27;4.87;;;36.50;90.80;;;37.23;41.79;101072.41;4987799;28;20631;-71
2023/08/20 07:58:05;;;;;;;5.30;4.90;;;36.40;90.60;;;37.16;42.35;101076.53;4977771;28;20751;-71
2023/08/20 08:00:32;;;;;;;6.17;5.37;;;36.30;90.50;;;37.19;42.26;101070.50;4978288;28;21385;-71
2023/08/20 08:02:59;;;;;;;4.70;4.30;;;36.30;90.70;;;37.01;42.97;101076.53;4979535;28;21063;-71
2023/08/20 08:05:27;;;;;;;4.37;4.07;;;36.20;90.70;;;36.89;43.28;101079.53;4980242;28;20646;-71
2023/08/20 08:07:54;;;;;;;5.17;4.77;;;36.10;90.70;;;36.66;43.20;101076.53;4987898;28;20670;-71
2023/08/20 08:10:21;;;;;;;5.30;4.90;;;35.90;90.80;;;36.56;43.35;101086.31;5001413;28;20650;-70
2023/08/20 08:12:48;;;;;;;5.10;4.60;;;35.80;91.00;;;36.38;42.95;101073.22;4976011;28;21271;-69
2023/08/20 08:15:15;;;;;;;5.07;4.67;;;35.60;90.80;;;36.29;44.12;101069.38;4972272;28;20734;-70
2023/08/20 08:17:42;;;;;;;4.77;4.43;;;35.50;91.10;;;36.29;43.78;101082.97;4972005;28;20755;-70
2023/08/20 08:20:09;;;;;;;7.50;5.53;;;35.50;91.00;;;36.19;43.85;101063.13;5002953;28;20630;-71
2023/08/20 08:22:36;;;;;;;5.13;4.63;;;35.40;91.00;;;36.27;43.21;101070.78;5000448;28;21085;-70
2023/08/20 08:25:03;;;;;;;5.40;4.90;;;35.40;90.70;;;36.25;43.36;101081.88;5001849;28;20675;-71
2023/08/20 08:27:30;;;;;;;8.53;4.40;;;35.40;90.90;;;36.30;43.89;101083.81;4988438;28;20729;-70
2023/08/20 08:29:58;;;;;;;5.13;4.53;;;35.50;91.10;;;36.16;43.81;101080.78;4976147;28;20641;-69
2023/08/20 08:32:25;;;;;;;5.50;5.10;;;35.40;90.70;;;35.98;44.24;101080.47;4977796;28;20632;-70
2023/08/20 08:34:52;;;;;;;9.20;5.10;;;35.20;91.00;;;35.90;43.91;101079.06;4979000;28;20638;-71
2023/08/20 08:37:19;;;;;;;4.80;4.40;;;35.10;90.90;;;35.92;44.19;101076.88;4984500;28;20630;-70
2023/08/20 08:39:45;;;;;;;4.33;4.03;;;35.10;90.90;;;35.98;44.00;101083.19;4986486;28;20732;-70
2023/08/20 08:42:14;;;;;;;5.07;4.57;;;35.10;91.10;;;36.02;44.18;101086.97;4975727;28;20749;-71
2023/08/20 08:44:41;;;;;;;5.07;4.57;;;35.10;91.10;;;35.91;44.11;101090.75;4997519;28;20639;-72
2023/08/20 08:47:09;;;;;;;3.20;3.00;;;35.10;90.80;;;35.92;44.22;101090.47;4981754;28;20673;-72
2023/08/20 08:49:36;;;;;;;4.50;4.10;;;35.10;91.20;;;35.72;44.71;101087.66;4998179;28;20792;-71
2023/08/20 08:52:04;;;;;;;6.20;5.53;;;35.00;91.40;;;35.61;45.79;101084.09;4983111;28;20658;-70
2023/08/20 08:54:33;;;;;;;5.00;4.40;;;34.80;91.80;;;35.59;45.43;101082.72;4988059;28;20737;-70
2023/08/20 08:57:00;;;;;;;4.90;4.40;;;34.80;91.90;;;35.51;45.79;101080.50;4993552;28;20639;-70
2023/08/20 08:59:27;;;;;;;5.73;5.17;;;34.70;92.00;;;35.56;45.94;101088.69;4969806;28;21095;-71
2023/08/20 09:01:56;;;;;;;5.53;4.43;;;34.70;92.20;;;35.50;45.73;101087.03;4991108;28;20665;-71
2023/08/20 09:04:23;;;;;;;5.33;4.83;;;34.70;92.00;;;35.33;46.21;101102.63;5005425;28;20658;-71
2023/08/20 09:06:53;;;;;;;5.13;4.67;;;34.50;92.10;;;35.28;46.37;101097.16;4983988;28;20709;-69
2023/08/20 09:09:21;;;;;;;4.53;4.23;;;34.50;92.30;;;35.28;46.53;101091.75;4982775;28;20668;-70
2023/08/20 09:11:49;;;;;;;5.50;4.70;;;34.40;92.30;;;35.35;46.61;101100.47;4980222;28;20678;-70
2023/08/20 09:14:24;;;;;;;6.70;3.80;;;34.50;92.40;;;35.38;45.36;101098.03;5004476;28;21036;-71
2023/08/20 09:17:01;;;;;;;5.23;4.73;;;34.50;91.90;;;35.38;45.62;101091.78;5000155;28;20712;-70
2023/08/20 09:19:39;;;;;;;5.03;4.63;;;34.50;91.90;;;35.36;45.79;101097.50;4989257;28;21395;-67
2023/08/20 09:22:06;;;;;;;4.53;4.23;;;34.50;91.90;;;35.44;45.26;101090.78;4995884;28;20757;-68
2023/08/20 09:24:39;;;;;;;3.57;3.37;;;34.50;91.80;;;35.36;45.04;101091.25;4968877;28;20646;-70
2023/08/20 09:27:06;;;;;;;4.93;4.53;;;34.40;91.50;;;35.28;45.77;101091.75;4998663;28;20626;-69
2023/08/20 09:29:48;;;;;;;4.67;4.27;;;34.40;91.90;;;35.30;45.62;101087.69;4983204;28;21025;-70
2023/08/20 09:32:26;;;;;;;8.40;4.90;;;34.40;91.90;;;35.31;45.14;101092.03;4989461;28;20670;-71
2023/08/20 09:34:55;;;;;;;5.37;4.83;;;34.40;91.70;;;35.20;45.41;101093.06;4967346;28;20974;-71
2023/08/20 09:37:24;;;;;;;4.67;4.20;;;34.30;91.60;;;35.19;45.78;101093.31;4977017;28;20616;-70
2023/08/20 09:39:51;;;;;;;5.10;4.67;;;34.30;91.90;;;35.23;45.86;101095.25;4970673;28;20642;-70
2023/08/20 09:42:18;;;;;;;5.27;4.77;;;34.30;91.90;;;35.29;45.57;101087.97;4982233;28;20634;-70
2023/08/20 09:44:47;;;;;;;5.97;5.47;;;34.40;91.90;;;35.22;45.55;101087.38;4997014;28;20642;-69
2023/08/20 09:47:18;;;;;;;5.43;4.50;;;34.30;91.70;;;35.15;45.83;101089.47;5001488;28;21361;-71
2023/08/20 09:49:48;;;;;;;6.03;4.63;;;34.30;91.90;;;34.81;47.16;101084.34;4997659;28;20713;-70
2023/08/20 09:52:27;;;;;;;4.70;4.30;;;34.00;92.40;;;34.57;47.03;101088.44;4984960;28;21254;-69
2023/08/20 09:55:09;;;;;;;7.57;5.27;;;33.80;92.40;;;34.42;47.92;101073.91;4968984;28;20694;-70
2023/08/20 09:57:40;;;;;;;4.90;4.47;;;33.60;92.80;;;34.31;47.63;101071.09;4984082;28;20627;-68
2023/08/20 10:00:13;;;;;;;5.00;4.43;;;33.50;92.60;;;34.21;48.12;101075.59;4967197;28;21532;-69
2023/08/20 10:02:43;;;;;;;5.33;4.90;;;33.40;92.90;;;34.13;48.30;101076.88;4966723;28;21013;-67
2023/08/20 10:05:12;;;;;;;5.77;4.83;;;33.30;92.80;;;34.14;48.10;101075.78;4967269;28;20987;-69
2023/08/20 10:07:39;;;;;;;5.20;4.70;;;33.30;93.30;;;34.16;48.26;101078.28;4973156;28;21228;-69
2023/08/20 10:10:09;;;;;;;6.10;5.00;;;33.30;93.20;;;34.14;47.96;101075.78;4992655;28;20662;-69
2023/08/20 10:12:39;;;;;;;6.03;5.00;;;33.30;93.00;;;34.06;47.93;101083.56;4972361;28;21221;-70
2023/08/20 10:15:09;;;;;;;3.23;2.93;;;33.20;92.80;;;33.96;47.90;101081.53;4984225;28;20631;-69
2023/08/20 10:17:38;;;;;;;5.23;4.70;;;33.10;92.90;;;33.92;48.15;101085.81;4971881;28;20630;-72